sensor_id;sensor_type;location;lat;lon;timestamp;P1;durP1;ratioP1;P2;durP2;ratioP2
59970;SDS011;45825;45.434;9.116;2024-01-06T00:00:12;9.38;;;6.72;;
59970;SDS011;45825;45.434;9.116;2024-01-06T00:02:37;8.70;;;6.22;;
59970;SDS011;45825;45.434;9.116;2024-01-06T00:05:03;9.48;;;6.13;;
59970;SDS011;45825;45.434;9.116;2024-01-06T00:07:30;8.88;;;6.40;;
59970;SDS011;45825;45.434;9.116;2024-01-06T00:09:55;8.13;;;5.90;;
59970;SDS011;45825;45.434;9.116;2024-01-06T00:12:20;9.10;;;6.07;;
59970;SDS011;45825;45.434;9.116;2024-01-06T00:14:46;8.18;;;5.50;;
59970;SDS011;45825;45.434;9.116;2024-01-06T00:17:11;8.13;;;5.60;;
59970;SDS011;45825;45.434;9.116;2024-01-06T00:19:36;8.30;;;5.47;;
59970;SDS011;45825;45.434;9.116;2024-01-06T00:22:02;8.85;;;5.50;;
59970;SDS011;45825;45.434;9.116;2024-01-06T00:24:27;9.23;;;5.57;;
59970;SDS011;45825;45.434;9.116;2024-01-06T00:26:53;8.25;;;5.57;;
59970;SDS011;45825;45.434;9.116;2024-01-06T00:29:18;7.55;;;5.53;;
59970;SDS011;45825;45.434;9.116;2024-01-06T00:31:43;8.88;;;6.00;;
59970;SDS011;45825;45.434;9.116;2024-01-06T00:34:08;7.68;;;5.38;;
59970;SDS011;45825;45.434;9.116;2024-01-06T00:36:34;9.30;;;5.40;;
59970;SDS011;45825;45.434;9.116;2024-01-06T00:38:59;7.85;;;5.63;;
59970;SDS011;45825;45.434;9.116;2024-01-06T00:41:25;9.00;;;5.70;;
59970;SDS011;45825;45.434;9.116;2024-01-06T00:43:50;8.48;;;5.40;;
59970;SDS011;45825;45.434;9.116;2024-01-06T00:46:15;7.95;;;5.70;;
59970;SDS011;45825;45.434;9.116;2024-01-06T00:48:41;7.30;;;5.10;;
59970;SDS011;45825;45.434;9.116;2024-01-06T00:51:06;8.45;;;6.07;;
59970;SDS011;45825;45.434;9.116;2024-01-06T00:53:32;8.40;;;5.63;;
59970;SDS011;45825;45.434;9.116;2024-01-06T00:55:57;8.75;;;5.47;;
59970;SDS011;45825;45.434;9.116;2024-01-06T00:58:22;6.80;;;4.78;;
59970;SDS011;45825;45.434;9.116;2024-01-06T01:00:48;8.65;;;5.25;;
59970;SDS011;45825;45.434;9.116;2024-01-06T01:03:13;7.45;;;4.80;;
59970;SDS011;45825;45.434;9.116;2024-01-06T01:05:38;7.57;;;4.85;;
59970;SDS011;45825;45.434;9.116;2024-01-06T01:08:03;9.07;;;5.18;;
59970;SDS011;45825;45.434;9.116;2024-01-06T01:10:29;7.72;;;5.18;;
59970;SDS011;45825;45.434;9.116;2024-01-06T01:12:55;6.75;;;4.53;;
59970;SDS011;45825;45.434;9.116;2024-01-06T01:15:20;7.72;;;5.00;;
59970;SDS011;45825;45.434;9.116;2024-01-06T01:17:45;7.72;;;4.97;;
59970;SDS011;45825;45.434;9.116;2024-01-06T01:20:11;7.47;;;4.82;;
59970;SDS011;45825;45.434;9.116;2024-01-06T01:22:36;6.78;;;4.90;;
59970;SDS011;45825;45.434;9.116;2024-01-06T01:25:01;6.93;;;4.60;;
59970;SDS011;45825;45.434;9.116;2024-01-06T01:27:32;7.43;;;4.50;;
59970;SDS011;45825;45.434;9.116;2024-01-06T01:29:58;6.78;;;4.45;;
59970;SDS011;45825;45.434;9.116;2024-01-06T01:32:23;6.93;;;4.40;;
59970;SDS011;45825;45.434;9.116;2024-01-06T01:34:48;6.78;;;4.47;;
59970;SDS011;45825;45.434;9.116;2024-01-06T01:37:13;7.45;;;4.35;;
59970;SDS011;45825;45.434;9.116;2024-01-06T01:39:39;7.47;;;4.43;;
59970;SDS011;45825;45.434;9.116;2024-01-06T01:42:04;7.15;;;4.53;;
59970;SDS011;45825;45.434;9.116;2024-01-06T01:44:29;7.78;;;4.55;;
59970;SDS011;45825;45.434;9.116;2024-01-06T01:46:55;6.70;;;4.15;;
59970;SDS011;45825;45.434;9.116;2024-01-06T01:49:20;7.03;;;4.50;;
59970;SDS011;45825;45.434;9.116;2024-01-06T01:51:46;6.60;;;3.88;;
59970;SDS011;45825;45.434;9.116;2024-01-06T01:54:12;5.85;;;3.80;;
59970;SDS011;45825;45.434;9.116;2024-01-06T01:56:37;7.80;;;4.10;;
59970;SDS011;45825;45.434;9.116;2024-01-06T01:59:09;6.32;;;3.97;;
59970;SDS011;45825;45.434;9.116;2024-01-06T02:01:37;6.30;;;3.80;;
59970;SDS011;45825;45.434;9.116;2024-01-06T02:04:02;6.90;;;4.45;;
59970;SDS011;45825;45.434;9.116;2024-01-06T02:06:28;6.32;;;3.95;;
59970;SDS011;45825;45.434;9.116;2024-01-06T02:08:53;6.50;;;4.05;;
59970;SDS011;45825;45.434;9.116;2024-01-06T02:11:19;5.68;;;3.90;;
59970;SDS011;45825;45.434;9.116;2024-01-06T02:13:44;7.30;;;4.10;;
59970;SDS011;45825;45.434;9.116;2024-01-06T02:16:09;6.50;;;3.60;;
59970;SDS011;45825;45.434;9.116;2024-01-06T02:18:35;5.85;;;3.90;;
59970;SDS011;45825;45.434;9.116;2024-01-06T02:21:00;4.93;;;3.45;;
59970;SDS011;45825;45.434;9.116;2024-01-06T02:23:27;5.90;;;3.55;;
59970;SDS011;45825;45.434;9.116;2024-01-06T02:25:53;5.85;;;3.63;;
59970;SDS011;45825;45.434;9.116;2024-01-06T02:28:18;6.30;;;3.60;;
59970;SDS011;45825;45.434;9.116;2024-01-06T02:30:43;5.32;;;3.40;;
59970;SDS011;45825;45.434;9.116;2024-01-06T02:33:10;5.88;;;3.45;;
59970;SDS011;45825;45.434;9.116;2024-01-06T02:35:35;5.10;;;3.50;;
59970;SDS011;45825;45.434;9.116;2024-01-06T02:38:01;6.63;;;3.72;;
59970;SDS011;45825;45.434;9.116;2024-01-06T02:40:26;7.32;;;4.50;;
59970;SDS011;45825;45.434;9.116;2024-01-06T02:42:52;6.68;;;4.13;;
59970;SDS011;45825;45.434;9.116;2024-01-06T02:45:17;7.07;;;4.75;;
59970;SDS011;45825;45.434;9.116;2024-01-06T02:47:43;6.43;;;4.30;;
59970;SDS011;45825;45.434;9.116;2024-01-06T02:50:08;6.50;;;4.50;;
59970;SDS011;45825;45.434;9.116;2024-01-06T02:52:33;6.85;;;4.40;;
59970;SDS011;45825;45.434;9.116;2024-01-06T02:54:59;6.55;;;4.35;;
59970;SDS011;45825;45.434;9.116;2024-01-06T02:57:25;7.20;;;4.85;;
59970;SDS011;45825;45.434;9.116;2024-01-06T02:59:51;7.72;;;5.35;;
59970;SDS011;45825;45.434;9.116;2024-01-06T03:02:16;7.03;;;4.97;;
59970;SDS011;45825;45.434;9.116;2024-01-06T03:04:42;7.38;;;5.32;;
59970;SDS011;45825;45.434;9.116;2024-01-06T03:07:07;7.18;;;5.13;;
59970;SDS011;45825;45.434;9.116;2024-01-06T03:09:32;7.90;;;5.53;;
59970;SDS011;45825;45.434;9.116;2024-01-06T03:11:57;7.78;;;5.93;;
59970;SDS011;45825;45.434;9.116;2024-01-06T03:14:23;7.45;;;5.75;;
59970;SDS011;45825;45.434;9.116;2024-01-06T03:16:48;8.38;;;5.88;;
59970;SDS011;45825;45.434;9.116;2024-01-06T03:19:13;8.30;;;6.28;;
59970;SDS011;45825;45.434;9.116;2024-01-06T03:21:39;7.88;;;5.90;;
59970;SDS011;45825;45.434;9.116;2024-01-06T03:24:04;8.43;;;6.40;;
59970;SDS011;45825;45.434;9.116;2024-01-06T03:26:32;9.75;;;6.53;;
59970;SDS011;45825;45.434;9.116;2024-01-06T03:28:58;9.30;;;6.03;;
59970;SDS011;45825;45.434;9.116;2024-01-06T03:31:24;8.75;;;6.40;;
59970;SDS011;45825;45.434;9.116;2024-01-06T03:33:49;8.55;;;6.47;;
59970;SDS011;45825;45.434;9.116;2024-01-06T03:36:14;9.20;;;6.70;;
59970;SDS011;45825;45.434;9.116;2024-01-06T03:38:41;9.60;;;7.13;;
59970;SDS011;45825;45.434;9.116;2024-01-06T03:41:07;9.77;;;7.35;;
59970;SDS011;45825;45.434;9.116;2024-01-06T03:43:32;9.65;;;7.20;;
59970;SDS011;45825;45.434;9.116;2024-01-06T03:45:58;10.75;;;8.20;;
59970;SDS011;45825;45.434;9.116;2024-01-06T03:48:25;13.57;;;10.00;;
59970;SDS011;45825;45.434;9.116;2024-01-06T03:50:50;11.55;;;9.25;;
59970;SDS011;45825;45.434;9.116;2024-01-06T03:53:15;14.48;;;10.50;;
59970;SDS011;45825;45.434;9.116;2024-01-06T03:55:41;12.18;;;10.00;;
59970;SDS011;45825;45.434;9.116;2024-01-06T03:58:06;13.30;;;10.60;;
59970;SDS011;45825;45.434;9.116;2024-01-06T04:00:31;13.63;;;10.75;;
59970;SDS011;45825;45.434;9.116;2024-01-06T04:02:57;15.15;;;12.05;;
59970;SDS011;45825;45.434;9.116;2024-01-06T04:05:22;16.13;;;11.82;;
59970;SDS011;45825;45.434;9.116;2024-01-06T04:07:47;15.68;;;11.77;;
59970;SDS011;45825;45.434;9.116;2024-01-06T04:10:13;15.30;;;11.90;;
59970;SDS011;45825;45.434;9.116;2024-01-06T04:12:38;16.52;;;12.73;;
59970;SDS011;45825;45.434;9.116;2024-01-06T04:15:03;16.92;;;12.45;;
59970;SDS011;45825;45.434;9.116;2024-01-06T04:17:29;16.67;;;12.82;;
59970;SDS011;45825;45.434;9.116;2024-01-06T04:19:54;15.45;;;12.05;;
59970;SDS011;45825;45.434;9.116;2024-01-06T04:22:20;15.50;;;11.75;;
59970;SDS011;45825;45.434;9.116;2024-01-06T04:24:45;16.33;;;12.63;;
59970;SDS011;45825;45.434;9.116;2024-01-06T04:27:10;15.85;;;11.77;;
59970;SDS011;45825;45.434;9.116;2024-01-06T04:29:36;18.80;;;13.07;;
59970;SDS011;45825;45.434;9.116;2024-01-06T04:32:01;16.10;;;11.95;;
59970;SDS011;45825;45.434;9.116;2024-01-06T04:34:27;18.73;;;13.90;;
59970;SDS011;45825;45.434;9.116;2024-01-06T04:36:52;17.77;;;13.85;;
59970;SDS011;45825;45.434;9.116;2024-01-06T04:39:17;17.58;;;14.23;;
59970;SDS011;45825;45.434;9.116;2024-01-06T04:41:43;17.00;;;12.60;;
59970;SDS011;45825;45.434;9.116;2024-01-06T04:44:08;17.77;;;13.82;;
59970;SDS011;45825;45.434;9.116;2024-01-06T04:46:33;16.20;;;13.20;;
59970;SDS011;45825;45.434;9.116;2024-01-06T04:48:59;21.00;;;15.98;;
59970;SDS011;45825;45.434;9.116;2024-01-06T04:51:24;19.08;;;14.88;;
59970;SDS011;45825;45.434;9.116;2024-01-06T04:53:49;16.90;;;14.15;;
59970;SDS011;45825;45.434;9.116;2024-01-06T04:56:15;16.50;;;13.73;;
59970;SDS011;45825;45.434;9.116;2024-01-06T04:58:40;15.52;;;13.18;;
59970;SDS011;45825;45.434;9.116;2024-01-06T05:01:05;16.80;;;13.60;;
59970;SDS011;45825;45.434;9.116;2024-01-06T05:03:31;16.30;;;13.82;;
59970;SDS011;45825;45.434;9.116;2024-01-06T05:05:56;18.88;;;14.65;;
59970;SDS011;45825;45.434;9.116;2024-01-06T05:08:21;16.05;;;13.60;;
59970;SDS011;45825;45.434;9.116;2024-01-06T05:10:48;18.48;;;14.88;;
59970;SDS011;45825;45.434;9.116;2024-01-06T05:13:13;18.30;;;15.10;;
59970;SDS011;45825;45.434;9.116;2024-01-06T05:15:39;19.17;;;14.50;;
59970;SDS011;45825;45.434;9.116;2024-01-06T05:18:05;16.90;;;14.30;;
59970;SDS011;45825;45.434;9.116;2024-01-06T05:20:30;18.35;;;14.40;;
59970;SDS011;45825;45.434;9.116;2024-01-06T05:22:55;17.58;;;15.20;;
59970;SDS011;45825;45.434;9.116;2024-01-06T05:25:21;17.50;;;14.55;;
59970;SDS011;45825;45.434;9.116;2024-01-06T05:27:46;18.88;;;14.95;;
59970;SDS011;45825;45.434;9.116;2024-01-06T05:30:11;19.15;;;15.68;;
59970;SDS011;45825;45.434;9.116;2024-01-06T05:32:37;17.60;;;15.32;;
59970;SDS011;45825;45.434;9.116;2024-01-06T05:35:03;17.50;;;14.77;;
59970;SDS011;45825;45.434;9.116;2024-01-06T05:37:29;18.20;;;14.80;;
59970;SDS011;45825;45.434;9.116;2024-01-06T05:39:54;16.77;;;14.52;;
59970;SDS011;45825;45.434;9.116;2024-01-06T05:42:19;18.95;;;14.93;;
59970;SDS011;45825;45.434;9.116;2024-01-06T05:44:45;18.45;;;15.45;;
59970;SDS011;45825;45.434;9.116;2024-01-06T05:47:10;18.15;;;14.85;;
59970;SDS011;45825;45.434;9.116;2024-01-06T05:49:35;18.52;;;15.73;;
59970;SDS011;45825;45.434;9.116;2024-01-06T05:52:01;18.02;;;15.77;;
59970;SDS011;45825;45.434;9.116;2024-01-06T05:54:26;16.73;;;14.23;;
59970;SDS011;45825;45.434;9.116;2024-01-06T05:56:51;18.27;;;15.57;;
59970;SDS011;45825;45.434;9.116;2024-01-06T05:59:17;18.90;;;15.70;;
59970;SDS011;45825;45.434;9.116;2024-01-06T06:01:42;17.88;;;15.60;;
59970;SDS011;45825;45.434;9.116;2024-01-06T06:04:08;19.42;;;15.85;;
59970;SDS011;45825;45.434;9.116;2024-01-06T06:06:34;18.00;;;15.07;;
59970;SDS011;45825;45.434;9.116;2024-01-06T06:09:00;18.63;;;15.55;;
59970;SDS011;45825;45.434;9.116;2024-01-06T06:11:25;19.63;;;16.25;;
59970;SDS011;45825;45.434;9.116;2024-01-06T06:13:50;19.30;;;15.90;;
59970;SDS011;45825;45.434;9.116;2024-01-06T06:16:16;19.52;;;16.50;;
59970;SDS011;45825;45.434;9.116;2024-01-06T06:18:41;19.92;;;16.80;;
59970;SDS011;45825;45.434;9.116;2024-01-06T06:21:06;21.65;;;16.85;;
59970;SDS011;45825;45.434;9.116;2024-01-06T06:23:32;20.83;;;16.75;;
59970;SDS011;45825;45.434;9.116;2024-01-06T06:25:59;21.77;;;17.50;;
59970;SDS011;45825;45.434;9.116;2024-01-06T06:28:24;20.58;;;17.55;;
59970;SDS011;45825;45.434;9.116;2024-01-06T06:30:50;22.10;;;17.55;;
59970;SDS011;45825;45.434;9.116;2024-01-06T06:33:15;20.00;;;16.83;;
59970;SDS011;45825;45.434;9.116;2024-01-06T06:35:42;19.15;;;16.27;;
59970;SDS011;45825;45.434;9.116;2024-01-06T06:38:07;20.05;;;16.65;;
59970;SDS011;45825;45.434;9.116;2024-01-06T06:40:32;19.55;;;16.30;;
59970;SDS011;45825;45.434;9.116;2024-01-06T06:42:58;19.52;;;16.45;;
59970;SDS011;45825;45.434;9.116;2024-01-06T06:45:23;19.75;;;17.10;;
59970;SDS011;45825;45.434;9.116;2024-01-06T06:47:49;20.98;;;17.20;;
59970;SDS011;45825;45.434;9.116;2024-01-06T06:50:18;20.13;;;16.80;;
59970;SDS011;45825;45.434;9.116;2024-01-06T06:52:44;20.17;;;17.45;;
59970;SDS011;45825;45.434;9.116;2024-01-06T06:55:10;21.38;;;18.30;;
59970;SDS011;45825;45.434;9.116;2024-01-06T06:57:35;19.95;;;16.33;;
59970;SDS011;45825;45.434;9.116;2024-01-06T07:00:01;20.45;;;16.70;;
59970;SDS011;45825;45.434;9.116;2024-01-06T07:02:27;22.60;;;17.67;;
59970;SDS011;45825;45.434;9.116;2024-01-06T07:04:52;21.20;;;17.60;;
59970;SDS011;45825;45.434;9.116;2024-01-06T07:07:18;20.60;;;17.20;;
59970;SDS011;45825;45.434;9.116;2024-01-06T07:09:44;20.77;;;17.25;;
59970;SDS011;45825;45.434;9.116;2024-01-06T07:12:09;19.25;;;16.13;;
59970;SDS011;45825;45.434;9.116;2024-01-06T07:14:34;23.05;;;18.08;;
59970;SDS011;45825;45.434;9.116;2024-01-06T07:17:00;22.02;;;18.00;;
59970;SDS011;45825;45.434;9.116;2024-01-06T07:19:25;21.08;;;17.48;;
59970;SDS011;45825;45.434;9.116;2024-01-06T07:21:50;21.73;;;17.40;;
59970;SDS011;45825;45.434;9.116;2024-01-06T07:24:15;23.45;;;18.67;;
59970;SDS011;45825;45.434;9.116;2024-01-06T07:26:41;22.77;;;17.92;;
59970;SDS011;45825;45.434;9.116;2024-01-06T07:29:06;22.48;;;18.27;;
59970;SDS011;45825;45.434;9.116;2024-01-06T07:31:33;21.50;;;18.00;;
59970;SDS011;45825;45.434;9.116;2024-01-06T07:33:59;24.25;;;18.23;;
59970;SDS011;45825;45.434;9.116;2024-01-06T07:36:24;23.58;;;19.25;;
59970;SDS011;45825;45.434;9.116;2024-01-06T07:38:49;21.65;;;18.02;;
59970;SDS011;45825;45.434;9.116;2024-01-06T07:41:15;23.75;;;18.70;;
59970;SDS011;45825;45.434;9.116;2024-01-06T07:43:40;25.20;;;20.20;;
59970;SDS011;45825;45.434;9.116;2024-01-06T07:46:05;23.45;;;19.73;;
59970;SDS011;45825;45.434;9.116;2024-01-06T07:48:32;22.98;;;18.58;;
59970;SDS011;45825;45.434;9.116;2024-01-06T07:50:57;23.15;;;18.77;;
59970;SDS011;45825;45.434;9.116;2024-01-06T07:53:22;22.95;;;18.27;;
59970;SDS011;45825;45.434;9.116;2024-01-06T07:55:48;21.73;;;17.95;;
59970;SDS011;45825;45.434;9.116;2024-01-06T07:58:14;21.35;;;17.52;;
59970;SDS011;45825;45.434;9.116;2024-01-06T08:00:39;24.75;;;18.23;;
59970;SDS011;45825;45.434;9.116;2024-01-06T08:03:05;21.98;;;17.83;;
59970;SDS011;45825;45.434;9.116;2024-01-06T08:05:31;22.92;;;18.50;;
59970;SDS011;45825;45.434;9.116;2024-01-06T08:07:56;22.15;;;17.52;;
59970;SDS011;45825;45.434;9.116;2024-01-06T08:10:22;24.70;;;19.40;;
59970;SDS011;45825;45.434;9.116;2024-01-06T08:12:47;22.75;;;17.95;;
59970;SDS011;45825;45.434;9.116;2024-01-06T08:15:13;23.27;;;18.77;;
59970;SDS011;45825;45.434;9.116;2024-01-06T08:17:39;24.45;;;19.40;;
59970;SDS011;45825;45.434;9.116;2024-01-06T08:20:06;24.55;;;19.73;;
59970;SDS011;45825;45.434;9.116;2024-01-06T08:22:33;25.05;;;20.02;;
59970;SDS011;45825;45.434;9.116;2024-01-06T08:24:58;24.92;;;20.83;;
59970;SDS011;45825;45.434;9.116;2024-01-06T08:27:24;24.95;;;20.08;;
59970;SDS011;45825;45.434;9.116;2024-01-06T08:29:49;24.52;;;20.05;;
59970;SDS011;45825;45.434;9.116;2024-01-06T08:32:15;26.40;;;21.00;;
59970;SDS011;45825;45.434;9.116;2024-01-06T08:34:41;25.10;;;19.92;;
59970;SDS011;45825;45.434;9.116;2024-01-06T08:37:06;25.00;;;20.00;;
59970;SDS011;45825;45.434;9.116;2024-01-06T08:39:32;27.45;;;19.92;;
59970;SDS011;45825;45.434;9.116;2024-01-06T08:41:57;25.58;;;19.88;;
59970;SDS011;45825;45.434;9.116;2024-01-06T08:44:23;27.33;;;20.13;;
59970;SDS011;45825;45.434;9.116;2024-01-06T08:46:48;27.58;;;21.20;;
59970;SDS011;45825;45.434;9.116;2024-01-06T08:49:14;25.30;;;20.13;;
59970;SDS011;45825;45.434;9.116;2024-01-06T08:51:39;29.65;;;20.60;;
59970;SDS011;45825;45.434;9.116;2024-01-06T08:54:04;29.38;;;21.40;;
59970;SDS011;45825;45.434;9.116;2024-01-06T08:56:30;23.85;;;19.52;;
59970;SDS011;45825;45.434;9.116;2024-01-06T08:58:56;22.83;;;19.50;;
59970;SDS011;45825;45.434;9.116;2024-01-06T09:01:22;24.52;;;20.27;;
59970;SDS011;45825;45.434;9.116;2024-01-06T09:03:47;22.98;;;18.77;;
59970;SDS011;45825;45.434;9.116;2024-01-06T09:06:14;21.67;;;17.88;;
59970;SDS011;45825;45.434;9.116;2024-01-06T09:08:39;21.40;;;17.60;;
59970;SDS011;45825;45.434;9.116;2024-01-06T09:11:05;23.42;;;18.67;;
59970;SDS011;45825;45.434;9.116;2024-01-06T09:13:30;24.50;;;19.70;;
59970;SDS011;45825;45.434;9.116;2024-01-06T09:15:57;23.48;;;18.73;;
59970;SDS011;45825;45.434;9.116;2024-01-06T09:18:22;20.80;;;17.58;;
59970;SDS011;45825;45.434;9.116;2024-01-06T09:20:47;23.17;;;18.45;;
59970;SDS011;45825;45.434;9.116;2024-01-06T09:23:13;21.90;;;17.63;;
59970;SDS011;45825;45.434;9.116;2024-01-06T09:25:38;20.85;;;16.67;;
59970;SDS011;45825;45.434;9.116;2024-01-06T09:28:05;20.02;;;16.73;;
59970;SDS011;45825;45.434;9.116;2024-01-06T09:30:30;19.75;;;16.58;;
59970;SDS011;45825;45.434;9.116;2024-01-06T09:32:56;20.52;;;16.95;;
59970;SDS011;45825;45.434;9.116;2024-01-06T09:35:21;23.55;;;19.05;;
59970;SDS011;45825;45.434;9.116;2024-01-06T09:37:46;24.77;;;19.40;;
59970;SDS011;45825;45.434;9.116;2024-01-06T09:40:12;22.55;;;18.30;;
59970;SDS011;45825;45.434;9.116;2024-01-06T09:42:40;21.67;;;18.17;;
59970;SDS011;45825;45.434;9.116;2024-01-06T09:45:06;22.98;;;18.52;;
59970;SDS011;45825;45.434;9.116;2024-01-06T09:47:33;26.25;;;19.30;;
59970;SDS011;45825;45.434;9.116;2024-01-06T09:50:00;21.20;;;17.27;;
59970;SDS011;45825;45.434;9.116;2024-01-06T09:52:28;22.23;;;17.50;;
59970;SDS011;45825;45.434;9.116;2024-01-06T09:54:57;22.73;;;17.98;;
59970;SDS011;45825;45.434;9.116;2024-01-06T09:57:25;23.45;;;17.77;;
59970;SDS011;45825;45.434;9.116;2024-01-06T09:59:51;24.20;;;18.63;;
59970;SDS011;45825;45.434;9.116;2024-01-06T10:02:16;22.95;;;17.80;;
59970;SDS011;45825;45.434;9.116;2024-01-06T10:04:43;23.48;;;19.23;;
59970;SDS011;45825;45.434;9.116;2024-01-06T10:07:09;25.50;;;18.17;;
59970;SDS011;45825;45.434;9.116;2024-01-06T10:09:37;25.00;;;18.23;;
59970;SDS011;45825;45.434;9.116;2024-01-06T10:12:03;23.83;;;19.13;;
59970;SDS011;45825;45.434;9.116;2024-01-06T10:14:28;24.02;;;19.02;;
59970;SDS011;45825;45.434;9.116;2024-01-06T10:16:54;23.30;;;19.20;;
59970;SDS011;45825;45.434;9.116;2024-01-06T10:19:19;24.48;;;19.95;;
59970;SDS011;45825;45.434;9.116;2024-01-06T10:21:45;25.13;;;20.73;;
59970;SDS011;45825;45.434;9.116;2024-01-06T10:24:10;26.63;;;19.83;;
59970;SDS011;45825;45.434;9.116;2024-01-06T10:26:36;25.35;;;19.30;;
59970;SDS011;45825;45.434;9.116;2024-01-06T10:29:01;25.13;;;19.05;;
59970;SDS011;45825;45.434;9.116;2024-01-06T10:31:27;24.23;;;19.33;;
59970;SDS011;45825;45.434;9.116;2024-01-06T10:33:54;24.85;;;19.08;;
59970;SDS011;45825;45.434;9.116;2024-01-06T10:36:20;20.13;;;17.45;;
59970;SDS011;45825;45.434;9.116;2024-01-06T10:38:47;23.90;;;20.52;;
59970;SDS011;45825;45.434;9.116;2024-01-06T10:41:14;24.48;;;19.08;;
59970;SDS011;45825;45.434;9.116;2024-01-06T10:43:41;24.67;;;19.17;;
59970;SDS011;45825;45.434;9.116;2024-01-06T10:46:09;23.15;;;19.55;;
59970;SDS011;45825;45.434;9.116;2024-01-06T10:48:39;23.10;;;18.67;;
59970;SDS011;45825;45.434;9.116;2024-01-06T10:51:08;25.98;;;19.95;;
59970;SDS011;45825;45.434;9.116;2024-01-06T10:53:34;27.10;;;21.27;;
59970;SDS011;45825;45.434;9.116;2024-01-06T10:56:03;26.50;;;19.17;;
59970;SDS011;45825;45.434;9.116;2024-01-06T10:58:30;25.40;;;19.58;;
59970;SDS011;45825;45.434;9.116;2024-01-06T11:00:57;24.17;;;18.55;;
59970;SDS011;45825;45.434;9.116;2024-01-06T11:03:23;22.75;;;18.38;;
59970;SDS011;45825;45.434;9.116;2024-01-06T11:05:49;25.55;;;20.75;;
59970;SDS011;45825;45.434;9.116;2024-01-06T11:08:16;25.20;;;20.50;;
59970;SDS011;45825;45.434;9.116;2024-01-06T11:10:42;28.25;;;21.98;;
59970;SDS011;45825;45.434;9.116;2024-01-06T11:13:11;25.30;;;20.45;;
59970;SDS011;45825;45.434;9.116;2024-01-06T11:15:48;23.35;;;19.50;;
59970;SDS011;45825;45.434;9.116;2024-01-06T11:21:19;25.73;;;20.05;;
59970;SDS011;45825;45.434;9.116;2024-01-06T11:26:39;25.75;;;20.98;;
59970;SDS011;45825;45.434;9.116;2024-01-06T11:29:07;27.30;;;21.13;;
59970;SDS011;45825;45.434;9.116;2024-01-06T11:31:33;24.40;;;19.60;;
59970;SDS011;45825;45.434;9.116;2024-01-06T11:34:12;25.10;;;20.10;;
59970;SDS011;45825;45.434;9.116;2024-01-06T11:36:39;24.35;;;20.55;;
59970;SDS011;45825;45.434;9.116;2024-01-06T11:39:05;24.63;;;19.88;;
59970;SDS011;45825;45.434;9.116;2024-01-06T11:41:49;26.20;;;20.02;;
59970;SDS011;45825;45.434;9.116;2024-01-06T11:44:20;24.20;;;19.35;;
59970;SDS011;45825;45.434;9.116;2024-01-06T11:46:45;25.17;;;19.30;;
59970;SDS011;45825;45.434;9.116;2024-01-06T11:49:12;22.58;;;18.52;;
59970;SDS011;45825;45.434;9.116;2024-01-06T11:51:40;23.58;;;18.65;;
59970;SDS011;45825;45.434;9.116;2024-01-06T11:54:05;24.95;;;20.10;;
59970;SDS011;45825;45.434;9.116;2024-01-06T11:56:31;23.50;;;18.92;;
59970;SDS011;45825;45.434;9.116;2024-01-06T11:58:56;24.13;;;19.83;;
59970;SDS011;45825;45.434;9.116;2024-01-06T12:01:22;24.55;;;19.95;;
59970;SDS011;45825;45.434;9.116;2024-01-06T12:03:52;26.00;;;20.13;;
59970;SDS011;45825;45.434;9.116;2024-01-06T12:06:20;24.50;;;20.48;;
59970;SDS011;45825;45.434;9.116;2024-01-06T12:08:46;25.65;;;19.95;;
59970;SDS011;45825;45.434;9.116;2024-01-06T12:11:11;23.70;;;19.65;;
59970;SDS011;45825;45.434;9.116;2024-01-06T12:13:37;25.75;;;20.17;;
59970;SDS011;45825;45.434;9.116;2024-01-06T12:16:02;23.65;;;19.67;;
59970;SDS011;45825;45.434;9.116;2024-01-06T12:18:28;23.45;;;19.85;;
59970;SDS011;45825;45.434;9.116;2024-01-06T12:20:53;21.17;;;18.58;;
59970;SDS011;45825;45.434;9.116;2024-01-06T12:23:25;24.27;;;18.25;;
59970;SDS011;45825;45.434;9.116;2024-01-06T12:25:53;25.00;;;19.48;;
59970;SDS011;45825;45.434;9.116;2024-01-06T12:28:18;24.75;;;19.23;;
59970;SDS011;45825;45.434;9.116;2024-01-06T12:30:44;26.02;;;20.13;;
59970;SDS011;45825;45.434;9.116;2024-01-06T12:33:09;24.65;;;20.13;;
59970;SDS011;45825;45.434;9.116;2024-01-06T12:35:35;26.23;;;20.50;;
59970;SDS011;45825;45.434;9.116;2024-01-06T12:38:01;24.50;;;19.58;;
59970;SDS011;45825;45.434;9.116;2024-01-06T12:40:30;22.85;;;18.23;;
59970;SDS011;45825;45.434;9.116;2024-01-06T12:42:55;21.60;;;17.75;;
59970;SDS011;45825;45.434;9.116;2024-01-06T12:45:21;24.23;;;18.92;;
59970;SDS011;45825;45.434;9.116;2024-01-06T12:47:46;21.95;;;18.10;;
59970;SDS011;45825;45.434;9.116;2024-01-06T12:50:11;26.15;;;21.10;;
59970;SDS011;45825;45.434;9.116;2024-01-06T12:52:37;24.42;;;20.20;;
59970;SDS011;45825;45.434;9.116;2024-01-06T12:55:04;26.55;;;21.27;;
59970;SDS011;45825;45.434;9.116;2024-01-06T12:57:30;26.10;;;20.98;;
59970;SDS011;45825;45.434;9.116;2024-01-06T12:59:55;25.92;;;20.30;;
59970;SDS011;45825;45.434;9.116;2024-01-06T13:02:21;23.90;;;19.33;;
59970;SDS011;45825;45.434;9.116;2024-01-06T13:04:46;22.33;;;18.80;;
59970;SDS011;45825;45.434;9.116;2024-01-06T13:07:11;24.05;;;18.63;;
59970;SDS011;45825;45.434;9.116;2024-01-06T13:09:37;22.63;;;18.90;;
59970;SDS011;45825;45.434;9.116;2024-01-06T13:12:02;23.58;;;19.30;;
59970;SDS011;45825;45.434;9.116;2024-01-06T13:14:28;21.42;;;18.65;;
59970;SDS011;45825;45.434;9.116;2024-01-06T13:16:54;24.55;;;19.33;;
59970;SDS011;45825;45.434;9.116;2024-01-06T13:19:20;22.45;;;19.05;;
59970;SDS011;45825;45.434;9.116;2024-01-06T13:21:46;23.40;;;19.10;;
59970;SDS011;45825;45.434;9.116;2024-01-06T13:24:12;22.48;;;18.50;;
59970;SDS011;45825;45.434;9.116;2024-01-06T13:26:37;23.15;;;19.00;;
59970;SDS011;45825;45.434;9.116;2024-01-06T13:29:02;23.80;;;19.63;;
59970;SDS011;45825;45.434;9.116;2024-01-06T13:31:28;21.50;;;17.70;;
59970;SDS011;45825;45.434;9.116;2024-01-06T13:33:54;20.95;;;17.67;;
59970;SDS011;45825;45.434;9.116;2024-01-06T13:36:20;20.70;;;17.15;;
59970;SDS011;45825;45.434;9.116;2024-01-06T13:38:45;21.27;;;17.50;;
59970;SDS011;45825;45.434;9.116;2024-01-06T13:41:11;22.15;;;17.40;;
59970;SDS011;45825;45.434;9.116;2024-01-06T13:43:36;21.10;;;17.63;;
59970;SDS011;45825;45.434;9.116;2024-01-06T13:46:02;21.40;;;17.80;;
59970;SDS011;45825;45.434;9.116;2024-01-06T13:48:27;22.27;;;18.42;;
59970;SDS011;45825;45.434;9.116;2024-01-06T13:50:53;23.15;;;18.20;;
59970;SDS011;45825;45.434;9.116;2024-01-06T13:53:19;22.70;;;18.92;;
59970;SDS011;45825;45.434;9.116;2024-01-06T13:55:44;23.65;;;18.80;;
59970;SDS011;45825;45.434;9.116;2024-01-06T13:58:10;22.95;;;18.70;;
59970;SDS011;45825;45.434;9.116;2024-01-06T14:00:35;23.27;;;18.35;;
59970;SDS011;45825;45.434;9.116;2024-01-06T14:03:01;26.20;;;20.50;;
59970;SDS011;45825;45.434;9.116;2024-01-06T14:05:27;26.42;;;20.25;;
59970;SDS011;45825;45.434;9.116;2024-01-06T14:07:53;25.58;;;20.05;;
59970;SDS011;45825;45.434;9.116;2024-01-06T14:10:18;24.00;;;19.58;;
59970;SDS011;45825;45.434;9.116;2024-01-06T14:12:44;25.60;;;20.17;;
59970;SDS011;45825;45.434;9.116;2024-01-06T14:15:09;25.33;;;19.33;;
59970;SDS011;45825;45.434;9.116;2024-01-06T14:17:34;25.80;;;19.70;;
59970;SDS011;45825;45.434;9.116;2024-01-06T14:20:00;24.92;;;19.35;;
59970;SDS011;45825;45.434;9.116;2024-01-06T14:22:26;23.17;;;18.25;;
59970;SDS011;45825;45.434;9.116;2024-01-06T14:24:52;23.08;;;17.65;;